createdAt,value
2023-03-16T00:00:26.209Z,7.45
2023-03-16T00:03:02.463Z,6.32
2023-03-16T00:05:32.799Z,4.70
2023-03-16T00:08:20.475Z,5.62
2023-03-16T00:10:52.509Z,5.90
2023-03-16T00:13:27.902Z,4.55
2023-03-16T00:16:01.143Z,3.92
2023-03-16T00:21:05.765Z,4.75
2023-03-16T00:23:38.124Z,3.33
2023-03-16T00:26:13.387Z,6.87
2023-03-16T00:28:45.090Z,3.40
2023-03-16T00:31:16.304Z,3.55
2023-03-16T00:33:52.654Z,2.92
2023-03-16T00:36:28.585Z,3.95
2023-03-16T00:39:01.512Z,3.22
2023-03-16T00:44:05.631Z,6.45
2023-03-16T00:46:39.113Z,9.15
2023-03-16T00:49:12.110Z,3.60
2023-03-16T00:54:16.086Z,4.40
2023-03-16T00:56:50.524Z,5.40
2023-03-16T00:59:23.954Z,5.37
2023-03-16T01:02:00.297Z,4.25
2023-03-16T01:04:37.780Z,4.10
2023-03-16T01:07:13.731Z,2.53
2023-03-16T01:10:19.362Z,5.05
2023-03-16T01:12:52.370Z,7.05
2023-03-16T01:17:56.419Z,3.03
2023-03-16T01:20:32.436Z,3.05
2023-03-16T01:23:04.803Z,3.05
2023-03-16T01:25:38.607Z,3.60
2023-03-16T01:28:11.415Z,2.80
2023-03-16T01:30:49.705Z,2.47
2023-03-16T01:33:19.527Z,2.05
2023-03-16T01:36:07.298Z,1.58
2023-03-16T01:38:42.899Z,3.35
2023-03-16T01:41:14.954Z,1.95
2023-03-16T01:43:50.573Z,2.62
2023-03-16T01:46:28.732Z,1.80
2023-03-16T01:49:20.193Z,2.55
2023-03-16T01:52:08.028Z,3.35
2023-03-16T01:54:39.958Z,4.57
2023-03-16T01:57:14.884Z,1.80
2023-03-16T01:59:53.748Z,2.30
2023-03-16T02:02:27.646Z,2.08
2023-03-16T02:05:13.574Z,2.53
2023-03-16T02:07:47.266Z,2.05
2023-03-16T02:10:21.206Z,3.03
2023-03-16T02:12:51.293Z,2.30
2023-03-16T02:15:34.494Z,3.60
2023-03-16T02:18:21.541Z,2.35
2023-03-16T02:21:03.237Z,2.47
2023-03-16T02:23:50.656Z,1.92
2023-03-16T02:26:40.037Z,2.00
2023-03-16T02:29:28.490Z,2.70
2023-03-16T02:32:04.130Z,1.75
2023-03-16T02:34:35.436Z,1.95
2023-03-16T02:37:06.209Z,1.60
2023-03-16T02:39:36.483Z,1.17
2023-03-16T02:42:14.260Z,1.30
2023-03-16T02:44:50.154Z,1.10
2023-03-16T02:47:30.536Z,3.22
2023-03-16T02:50:03.788Z,1.70
2023-03-16T02:52:50.050Z,1.83
2023-03-16T02:57:54.770Z,1.58
2023-03-16T03:01:02.149Z,2.37
2023-03-16T03:03:33.051Z,1.40
2023-03-16T03:06:05.392Z,1.45
2023-03-16T03:08:45.837Z,1.73
2023-03-16T03:11:21.949Z,1.48
2023-03-16T03:13:52.465Z,1.45
2023-03-16T03:16:26.013Z,2.12
2023-03-16T03:19:01.654Z,1.65
2023-03-16T03:21:33.501Z,2.55
2023-03-16T03:24:07.703Z,2.67
2023-03-16T03:26:37.874Z,1.20
2023-03-16T03:29:13.858Z,2.03
2023-03-16T03:31:42.596Z,1.02
2023-03-16T03:34:15.023Z,1.48
2023-03-16T03:37:21.504Z,1.80
2023-03-16T03:43:05.790Z,1.55
2023-03-16T03:46:03.881Z,1.75
2023-03-16T03:52:03.663Z,1.55
2023-03-16T03:54:54.202Z,1.50
2023-03-16T03:57:31.969Z,1.27
2023-03-16T04:00:02.593Z,2.20
2023-03-16T04:02:33.312Z,1.17
2023-03-16T04:05:08.635Z,1.67
2023-03-16T04:07:47.270Z,0.70
2023-03-16T04:10:22.538Z,3.72
2023-03-16T04:12:52.749Z,1.58
2023-03-16T04:15:57.344Z,1.20
2023-03-16T04:18:26.616Z,1.58
2023-03-16T04:20:59.845Z,1.23
2023-03-16T04:23:46.107Z,1.52
2023-03-16T04:26:16.353Z,1.40
2023-03-16T04:28:51.800Z,1.02
2023-03-16T04:34:14.198Z,0.82
2023-03-16T04:36:47.317Z,1.50
2023-03-16T04:42:23.935Z,1.10
2023-03-16T04:44:55.417Z,0.93
2023-03-16T04:47:28.513Z,1.48
2023-03-16T04:52:41.180Z,0.60
2023-03-16T04:55:14.980Z,2.40
2023-03-16T05:01:09.669Z,1.10
2023-03-16T05:03:44.643Z,1.60
2023-03-16T05:06:56.841Z,1.92
2023-03-16T05:09:45.335Z,0.95
2023-03-16T05:12:19.123Z,0.90
2023-03-16T05:14:54.284Z,1.55
2023-03-16T05:17:34.846Z,1.60
2023-03-16T05:20:07.569Z,0.90
2023-03-16T05:22:55.375Z,0.70
2023-03-16T05:25:32.456Z,1.23
2023-03-16T05:28:24.305Z,1.23
2023-03-16T05:34:19.914Z,0.85
2023-03-16T05:40:20.353Z,1.00
2023-03-16T05:42:59.234Z,1.60
2023-03-16T05:45:47.815Z,0.80
2023-03-16T05:48:38.087Z,1.12
2023-03-16T05:51:10.851Z,1.52
2023-03-16T05:53:43.763Z,1.10
2023-03-16T05:56:17.482Z,1.45
2023-03-16T05:58:49.270Z,1.00
2023-03-16T06:01:41.047Z,1.52
2023-03-16T06:04:10.824Z,1.00
2023-03-16T06:06:41.671Z,2.08
2023-03-16T06:09:11.237Z,0.70
2023-03-16T06:11:38.687Z,0.77
2023-03-16T06:14:12.227Z,0.77
2023-03-16T06:16:41.860Z,0.62
2023-03-16T06:19:12.673Z,1.00
2023-03-16T06:21:49.122Z,1.15
2023-03-16T06:24:18.083Z,0.65
2023-03-16T06:26:54.275Z,1.87
2023-03-16T06:29:26.998Z,1.17
2023-03-16T06:31:57.759Z,1.70
2023-03-16T06:34:28.641Z,1.00
2023-03-16T06:37:07.319Z,0.93
2023-03-16T06:39:36.218Z,1.10
2023-03-16T06:42:06.280Z,0.80
2023-03-16T06:44:36.686Z,0.95
2023-03-16T06:47:08.978Z,0.75
2023-03-16T06:49:39.358Z,1.02
2023-03-16T06:52:17.529Z,2.40
2023-03-16T06:54:50.459Z,1.55
2023-03-16T06:57:21.656Z,1.75
2023-03-16T06:59:51.266Z,0.80
2023-03-16T07:02:19.247Z,1.08
2023-03-16T07:04:53.516Z,0.98
2023-03-16T07:07:23.513Z,0.80
2023-03-16T07:09:50.899Z,1.70
2023-03-16T07:12:24.922Z,2.95
2023-03-16T07:14:55.265Z,0.93
2023-03-16T07:17:27.194Z,1.10
2023-03-16T07:20:00.173Z,0.80
2023-03-16T07:22:34.277Z,1.08
2023-03-16T07:25:04.982Z,0.80
2023-03-16T07:27:36.792Z,1.67
2023-03-16T07:30:06.427Z,0.95
2023-03-16T07:32:33.456Z,1.52
2023-03-16T07:35:03.896Z,4.47
2023-03-16T07:37:30.997Z,1.62
2023-03-16T07:40:05.371Z,4.25
2023-03-16T07:42:32.925Z,1.83
2023-03-16T07:45:05.117Z,1.58
2023-03-16T07:47:41.977Z,4.47
2023-03-16T07:50:13.704Z,1.75
2023-03-16T07:52:45.853Z,5.43
2023-03-16T07:55:23.307Z,1.97
2023-03-16T07:57:53.176Z,3.25
2023-03-16T08:00:33.352Z,2.62
2023-03-16T08:03:00.916Z,7.32
2023-03-16T08:05:28.781Z,3.60
2023-03-16T08:07:56.328Z,6.70
2023-03-16T08:10:27.261Z,3.53
2023-03-16T08:12:54.979Z,1.12
2023-03-16T08:15:28.376Z,5.07
2023-03-16T08:17:55.396Z,2.40
2023-03-16T08:20:25.576Z,3.75
2023-03-16T08:23:01.746Z,4.97
2023-03-16T08:25:35.171Z,4.68
2023-03-16T08:28:08.681Z,3.97
2023-03-16T08:30:44.379Z,6.80
2023-03-16T08:33:22.993Z,9.70
2023-03-16T08:35:54.499Z,3.70
2023-03-16T08:38:24.910Z,1.65
2023-03-16T08:40:53.500Z,2.50
2023-03-16T08:43:26.846Z,6.12
2023-03-16T08:45:57.064Z,2.47
2023-03-16T08:48:27.118Z,3.85
2023-03-16T08:50:59.099Z,2.80
2023-03-16T08:53:31.983Z,1.95
2023-03-16T08:56:09.104Z,3.03
2023-03-16T08:58:37.465Z,2.62
2023-03-16T09:01:08.350Z,3.47
2023-03-16T09:03:36.359Z,4.60
2023-03-16T09:06:11.443Z,2.70
2023-03-16T09:08:41.859Z,5.93
2023-03-16T09:11:15.576Z,4.30
2023-03-16T09:13:47.548Z,6.10
2023-03-16T09:16:22.870Z,4.80
2023-03-16T09:18:53.796Z,2.72
2023-03-16T09:21:30.369Z,3.53
2023-03-16T09:24:00.384Z,5.43
2023-03-16T09:26:33.154Z,2.10
2023-03-16T09:29:03.606Z,3.35
2023-03-16T09:31:30.869Z,2.72
2023-03-16T09:34:10.198Z,2.95
2023-03-16T09:36:40.198Z,2.80
2023-03-16T09:39:07.182Z,1.48
2023-03-16T09:41:53.694Z,1.98
2023-03-16T09:44:51.254Z,3.55
2023-03-16T09:47:29.662Z,3.60
2023-03-16T09:50:05.028Z,2.40
2023-03-16T09:52:45.629Z,4.05
2023-03-16T09:55:33.701Z,1.23
2023-03-16T09:58:06.441Z,1.45
2023-03-16T10:01:04.140Z,1.52
2023-03-16T10:03:45.033Z,2.65
2023-03-16T10:06:19.036Z,2.08
2023-03-16T10:08:53.040Z,2.72
2023-03-16T10:11:44.276Z,2.10
2023-03-16T10:14:23.017Z,3.65
2023-03-16T10:17:18.331Z,1.62
2023-03-16T10:20:03.365Z,2.50
2023-03-16T10:22:33.663Z,1.70
2023-03-16T10:25:34.155Z,2.00
2023-03-16T10:28:01.529Z,2.35
2023-03-16T10:30:35.899Z,2.92
2023-03-16T10:33:14.868Z,2.28
2023-03-16T10:35:51.598Z,7.55
2023-03-16T10:38:37.553Z,5.62
2023-03-16T10:41:32.706Z,6.32
2023-03-16T10:44:06.037Z,3.55
2023-03-16T10:46:50.014Z,6.03
2023-03-16T10:49:27.185Z,4.47
2023-03-16T10:51:59.708Z,4.78
2023-03-16T10:54:39.004Z,8.70
2023-03-16T10:57:21.088Z,9.20
2023-03-16T11:00:13.458Z,5.70
2023-03-16T11:02:43.386Z,3.72
2023-03-16T11:05:24.833Z,4.22
2023-03-16T11:07:57.007Z,4.87
2023-03-16T11:10:36.195Z,3.05
2023-03-16T11:13:17.456Z,7.40
2023-03-16T11:16:00.746Z,4.75
2023-03-16T11:20:59.882Z,3.05
2023-03-16T11:23:48.625Z,2.87
2023-03-16T11:26:33.677Z,4.68
2023-03-16T11:29:15.749Z,1.92
2023-03-16T11:31:51.989Z,2.20
2023-03-16T11:34:29.868Z,2.10
2023-03-16T11:37:25.982Z,1.73
2023-03-16T11:39:55.605Z,3.15
2023-03-16T11:42:44.719Z,3.20
2023-03-16T11:45:30.427Z,2.65
2023-03-16T11:48:06.453Z,3.97
2023-03-16T11:51:01.269Z,2.30
2023-03-16T11:53:42.869Z,1.87
2023-03-16T11:56:25.288Z,3.95
2023-03-16T11:59:18.474Z,3.60
2023-03-16T12:02:04.329Z,7.35
2023-03-16T12:04:45.207Z,7.60
2023-03-16T12:07:30.446Z,2.65
2023-03-16T12:10:14.946Z,10.65
2023-03-16T12:12:55.133Z,4.22
2023-03-16T12:15:43.757Z,6.65
2023-03-16T12:18:25.372Z,4.90
2023-03-16T12:21:18.357Z,8.98
2023-03-16T12:23:52.497Z,5.55
2023-03-16T12:26:25.858Z,3.58
2023-03-16T12:28:58.396Z,2.25
2023-03-16T12:31:40.137Z,4.70
2023-03-16T12:34:25.330Z,3.83
2023-03-16T12:37:18.225Z,5.65
2023-03-16T12:39:54.122Z,6.00
2023-03-16T12:42:33.083Z,6.55
2023-03-16T12:45:11.004Z,7.70
2023-03-16T12:48:34.055Z,3.58
2023-03-16T12:51:05.791Z,5.60
2023-03-16T12:53:41.639Z,4.72
2023-03-16T12:56:15.023Z,4.30
2023-03-16T12:58:56.638Z,3.65
2023-03-16T13:01:37.764Z,3.20
2023-03-16T13:04:14.676Z,7.43
2023-03-16T13:07:02.127Z,5.43
2023-03-16T13:09:32.105Z,6.50
2023-03-16T13:12:04.784Z,3.65
2023-03-16T13:14:48.145Z,6.68
2023-03-16T13:17:17.850Z,9.15
2023-03-16T13:19:46.295Z,6.10
2023-03-16T13:22:47.411Z,6.50
2023-03-16T13:25:42.521Z,8.98
2023-03-16T13:28:18.862Z,7.53
2023-03-16T13:30:51.856Z,7.62
2023-03-16T13:35:53.482Z,5.05
2023-03-16T13:38:26.153Z,6.15
2023-03-16T13:41:01.593Z,5.82
2023-03-16T13:43:38.666Z,5.90
2023-03-16T13:46:20.819Z,4.85
2023-03-16T13:48:48.547Z,8.20
2023-03-16T13:51:24.552Z,5.60
2023-03-16T13:53:54.900Z,3.97
2023-03-16T13:56:28.004Z,4.57
2023-03-16T14:01:30.083Z,3.33
2023-03-16T14:04:00.820Z,5.43
2023-03-16T14:06:32.791Z,4.28
2023-03-16T14:09:08.211Z,2.97
2023-03-16T14:11:49.325Z,3.37
2023-03-16T14:14:31.984Z,4.85
2023-03-16T14:17:18.842Z,4.45
2023-03-16T14:19:50.302Z,3.00
2023-03-16T14:22:20.489Z,3.10
2023-03-16T14:25:00.363Z,3.33
2023-03-16T14:27:43.009Z,3.30
2023-03-16T14:30:33.573Z,5.12
2023-03-16T14:33:06.051Z,2.28
2023-03-16T14:35:59.743Z,5.70
2023-03-16T14:38:35.350Z,2.83
2023-03-16T14:41:19.913Z,4.37
2023-03-16T14:43:50.383Z,3.80
2023-03-16T14:46:28.939Z,6.28
2023-03-16T14:49:10.627Z,4.25
2023-03-16T14:51:41.028Z,5.32
2023-03-16T14:54:19.483Z,7.22
2023-03-16T14:56:56.309Z,4.05
2023-03-16T14:59:26.581Z,4.72
2023-03-16T15:01:58.749Z,8.55
2023-03-16T15:04:41.309Z,8.93
2023-03-16T15:07:24.762Z,6.53
2023-03-16T15:09:54.344Z,5.53
2023-03-16T15:12:22.699Z,6.55
2023-03-16T15:14:54.417Z,5.05
2023-03-16T15:17:29.381Z,12.02
2023-03-16T15:20:05.925Z,5.22
2023-03-16T15:22:39.567Z,8.27
2023-03-16T15:25:40.389Z,5.15
2023-03-16T15:28:18.300Z,7.18
2023-03-16T15:30:53.709Z,5.20
2023-03-16T15:33:24.449Z,5.45
2023-03-16T15:35:53.500Z,5.07
2023-03-16T15:38:33.069Z,4.45
2023-03-16T15:41:04.300Z,3.55
2023-03-16T15:43:37.500Z,3.35
2023-03-16T15:48:37.440Z,3.55
2023-03-16T15:51:16.530Z,6.18
2023-03-16T15:54:19.313Z,4.85
2023-03-16T15:56:54.678Z,3.45
2023-03-16T15:59:29.542Z,3.97
2023-03-16T16:02:16.889Z,5.80
2023-03-16T16:04:49.805Z,7.20
2023-03-16T16:07:20.607Z,5.03
2023-03-16T16:09:52.904Z,3.47
2023-03-16T16:12:26.532Z,14.27
2023-03-16T16:15:00.224Z,4.05
2023-03-16T16:17:43.816Z,5.45
2023-03-16T16:20:22.353Z,5.47
2023-03-16T16:22:53.330Z,6.47
2023-03-16T16:25:23.668Z,9.27
2023-03-16T16:27:51.676Z,5.93
2023-03-16T16:30:32.322Z,8.07
2023-03-16T16:33:02.634Z,16.37
2023-03-16T16:35:33.053Z,9.73
2023-03-16T16:38:03.842Z,5.72
2023-03-16T16:40:39.227Z,5.90
2023-03-16T16:43:07.137Z,6.90
2023-03-16T16:45:34.055Z,10.95
2023-03-16T16:48:13.261Z,8.40
2023-03-16T16:50:46.616Z,8.25
2023-03-16T16:53:20.110Z,5.50
2023-03-16T16:55:53.394Z,5.03
2023-03-16T16:58:25.047Z,5.25
2023-03-16T17:01:02.160Z,8.68
2023-03-16T17:03:35.960Z,6.72
2023-03-16T17:06:09.075Z,7.22
2023-03-16T17:11:21.059Z,8.38
2023-03-16T17:16:18.691Z,6.22
2023-03-16T17:18:49.458Z,4.97
2023-03-16T17:21:19.165Z,3.67
2023-03-16T17:23:51.014Z,5.32
2023-03-16T17:26:30.585Z,4.43
2023-03-16T17:29:04.151Z,8.27
2023-03-16T17:31:41.172Z,5.35
2023-03-16T17:34:32.555Z,13.65
2023-03-16T17:37:02.628Z,7.07
2023-03-16T17:39:38.622Z,8.55
2023-03-16T17:42:21.045Z,9.50
2023-03-16T17:44:54.776Z,4.93
2023-03-16T17:47:30.367Z,10.77
2023-03-16T17:50:14.827Z,6.82
2023-03-16T17:52:47.594Z,7.85
2023-03-16T17:55:15.993Z,4.60
2023-03-16T17:57:46.589Z,6.97
2023-03-16T18:00:30.343Z,8.00
2023-03-16T18:03:01.215Z,8.48
2023-03-16T18:05:37.661Z,4.07
2023-03-16T18:08:22.853Z,7.22
2023-03-16T18:11:18.134Z,6.45
2023-03-16T18:13:55.937Z,8.70
2023-03-16T18:16:31.059Z,11.02
2023-03-16T18:19:19.866Z,13.23
2023-03-16T18:21:47.029Z,7.10
2023-03-16T18:24:17.797Z,8.30
2023-03-16T18:26:44.754Z,8.15
2023-03-16T18:29:14.463Z,8.05
2023-03-16T18:31:51.765Z,12.70
2023-03-16T18:34:25.582Z,13.30
2023-03-16T18:37:00.151Z,8.18
2023-03-16T18:39:33.350Z,11.00
2023-03-16T18:42:03.795Z,6.25
2023-03-16T18:44:34.948Z,10.90
2023-03-16T18:47:15.275Z,9.02
2023-03-16T18:49:42.216Z,9.02
2023-03-16T18:52:34.773Z,8.88
2023-03-16T18:55:14.601Z,6.15
2023-03-16T18:57:42.077Z,6.87
2023-03-16T19:00:16.641Z,11.10
2023-03-16T19:02:59.027Z,11.88
2023-03-16T19:05:35.701Z,5.20
2023-03-16T19:08:04.673Z,12.15
2023-03-16T19:10:40.710Z,10.20
2023-03-16T19:13:22.049Z,17.55
2023-03-16T19:15:53.967Z,10.23
2023-03-16T19:18:26.894Z,6.75
2023-03-16T19:20:55.556Z,5.32
2023-03-16T19:23:30.249Z,5.87
2023-03-16T19:25:57.568Z,16.40
2023-03-16T19:28:42.061Z,7.45
2023-03-16T19:31:25.857Z,9.10
2023-03-16T19:33:56.118Z,9.30
2023-03-16T19:36:28.739Z,8.98
2023-03-16T19:39:02.278Z,8.77
2023-03-16T19:41:40.825Z,12.43
2023-03-16T19:44:22.147Z,8.38
2023-03-16T19:46:53.125Z,9.88
2023-03-16T19:49:26.735Z,8.93
2023-03-16T19:52:00.200Z,8.50
2023-03-16T19:54:31.311Z,7.87
2023-03-16T19:57:18.530Z,7.70
2023-03-16T19:59:57.949Z,8.38
2023-03-16T20:02:36.130Z,8.80
2023-03-16T20:05:07.292Z,8.70
2023-03-16T20:07:54.710Z,7.40
2023-03-16T20:10:32.139Z,7.90
2023-03-16T20:13:12.022Z,7.85
2023-03-16T20:15:46.526Z,12.00
2023-03-16T20:18:24.228Z,10.07
2023-03-16T20:20:54.692Z,9.25
2023-03-16T20:23:28.187Z,20.08
2023-03-16T20:26:03.292Z,9.98
2023-03-16T20:28:41.325Z,10.73
2023-03-16T20:31:18.517Z,8.00
2023-03-16T20:33:47.167Z,6.00
2023-03-16T20:36:24.918Z,6.15
2023-03-16T20:39:02.199Z,12.98
2023-03-16T20:41:40.372Z,7.07
2023-03-16T20:44:17.938Z,9.43
2023-03-16T20:46:49.517Z,14.40
2023-03-16T20:49:30.089Z,8.25
2023-03-16T20:52:04.021Z,7.47
2023-03-16T20:54:35.545Z,8.55
2023-03-16T20:57:11.251Z,6.68
2023-03-16T20:59:42.485Z,8.90
2023-03-16T21:02:43.278Z,11.57
2023-03-16T21:05:22.324Z,9.20
2023-03-16T21:07:53.021Z,11.38
2023-03-16T21:10:27.688Z,9.05
2023-03-16T21:13:04.812Z,10.40
2023-03-16T21:15:39.754Z,8.82
2023-03-16T21:18:23.533Z,7.50
2023-03-16T21:20:53.876Z,7.45
2023-03-16T21:23:26.772Z,7.95
2023-03-16T21:26:00.945Z,8.43
2023-03-16T21:28:33.598Z,7.65
2023-03-16T21:31:07.387Z,5.82
2023-03-16T21:33:38.022Z,7.87
2023-03-16T21:36:17.249Z,9.75
2023-03-16T21:38:48.781Z,9.20
2023-03-16T21:41:21.610Z,9.02
2023-03-16T21:43:51.801Z,7.22
2023-03-16T21:46:26.485Z,8.20
2023-03-16T21:49:04.699Z,8.88
2023-03-16T21:51:42.073Z,10.32
2023-03-16T21:54:20.879Z,10.70
2023-03-16T21:56:49.178Z,8.55
2023-03-16T21:59:25.823Z,8.40
2023-03-16T22:02:01.840Z,9.07
2023-03-16T22:04:37.640Z,7.85
2023-03-16T22:07:16.403Z,9.40
2023-03-16T22:09:49.814Z,8.50
2023-03-16T22:12:23.128Z,7.00
2023-03-16T22:14:57.499Z,10.55
2023-03-16T22:17:31.239Z,10.23
2023-03-16T22:20:00.584Z,9.20
2023-03-16T22:22:30.862Z,8.52
2023-03-16T22:24:58.056Z,8.63
2023-03-16T22:27:25.441Z,8.93
2023-03-16T22:29:54.854Z,8.38
2023-03-16T22:32:28.615Z,8.82
2023-03-16T22:35:02.203Z,10.18
2023-03-16T22:37:35.706Z,8.43
2023-03-16T22:40:19.714Z,8.85
2023-03-16T22:42:50.599Z,7.47
2023-03-16T22:45:29.843Z,5.97
2023-03-16T22:48:02.675Z,7.62
2023-03-16T22:50:36.056Z,10.25
2023-03-16T22:53:09.932Z,8.43
2023-03-16T22:55:46.174Z,8.93
2023-03-16T22:58:39.996Z,9.43
2023-03-16T23:01:22.058Z,7.68
2023-03-16T23:04:04.536Z,7.20
2023-03-16T23:06:39.790Z,7.12
2023-03-16T23:09:11.337Z,8.25
2023-03-16T23:11:46.096Z,7.70
2023-03-16T23:14:33.235Z,7.00
2023-03-16T23:17:13.581Z,10.02
2023-03-16T23:19:47.705Z,6.20
2023-03-16T23:22:15.819Z,5.95
2023-03-16T23:24:49.866Z,6.47
2023-03-16T23:27:22.253Z,7.97
2023-03-16T23:29:49.930Z,6.03
2023-03-16T23:32:20.865Z,6.78
2023-03-16T23:34:49.915Z,7.80
2023-03-16T23:37:22.891Z,6.25
2023-03-16T23:42:27.892Z,6.37
2023-03-16T23:45:06.484Z,7.68
2023-03-16T23:47:37.544Z,21.27
2023-03-16T23:50:18.777Z,6.70
2023-03-16T23:52:52.013Z,8.40
2023-03-16T23:55:26.364Z,6.55
2023-03-16T23:57:54.531Z,8.15
